Pagrindinis puslapis
METAR-TAF:

METAR-TAF

Oro uostai :

Širazas, Iranas

platuma: 29-32N, ilguma: 052-35E, Aukštis: 1486 m

Dabartinis oras

Ataskaita buvo paskelbta 41 minutes, ne 10:30 UTC
Ramus vėjas
Temperatūra 26°C
Drėgmė 10%
Slėgis 1021 hPa
Matomumas 10 km arba daugiau
nėra debesų žemiau 1500 m ir nėra kamuolinių lietaus debesų

METAR: OISS 221030Z 00000KT CAVOK 26/M08 Q1021 A3015

Laikas: 14:41 (11:11 UTC)

Prognozė

Ataskaita buvo paskelbta 5 valandos ir 21 minutes, ne 05:50 UTC
Prognozė galioja nuo 22 metu 06 UTC su 23 metu 12 UTC
Vėjas 6 kt iš Šiaurės Vakarų
Matomumas 10 km arba daugiau
nėra debesų žemiau 1500 m ir nėra kamuolinių lietaus debesų

TAF: OISS 220550Z 2206/2312 31006KT CAVOK

Orai ataskaitas ir orų prognozės (METAR, TAF).

turimą stotys yra geltonos ir raudonos taškus žemėlapyje.

Perkelti pele per norėdami pamatyti stoties vardą.

Tada spustelėkite, norėdami matyti oro stebėjimo ir prognozės.

Norėdami pakeisti žemėlapį: spustelėkite ant žalios mygtukų su juodo kryžiaus žemyn,; žalią mygtuką su brūkšneliu, jei norite nutolinti; arba žalių rodyklių gretimoms žemėlapius.


METAR-TAF: